createdAt,value
2019-02-26T00:02:02.700Z,72.11
2019-02-26T00:04:32.621Z,72.71
2019-02-26T00:07:00.390Z,73.78
2019-02-26T00:09:29.977Z,73.60
2019-02-26T00:11:57.599Z,72.88
2019-02-26T00:14:27.380Z,72.24
2019-02-26T00:16:54.619Z,72.32
2019-02-26T00:19:22.277Z,72.31
2019-02-26T00:21:51.791Z,72.90
2019-02-26T00:24:19.303Z,73.06
2019-02-26T00:26:46.984Z,73.26
2019-02-26T00:29:14.636Z,73.76
2019-02-26T00:31:43.403Z,73.10
2019-02-26T00:34:14.039Z,73.68
2019-02-26T00:36:41.027Z,74.22
2019-02-26T00:39:08.682Z,74.58
2019-02-26T00:41:36.338Z,74.39
2019-02-26T00:44:04.731Z,74.14
2019-02-26T00:46:34.742Z,74.08
2019-02-26T00:49:03.120Z,74.49
2019-02-26T00:51:32.109Z,74.53
2019-02-26T00:54:00.206Z,75.44
2019-02-26T00:56:29.853Z,75.40
2019-02-26T00:58:58.500Z,75.32
2019-02-26T01:01:26.170Z,75.01
2019-02-26T01:03:53.830Z,75.34
2019-02-26T01:06:22.538Z,75.70
2019-02-26T01:08:50.855Z,76.30
2019-02-26T01:11:19.502Z,75.83
2019-02-26T01:13:48.749Z,75.72
2019-02-26T01:16:16.929Z,75.40
2019-02-26T01:18:46.688Z,74.89
2019-02-26T01:21:13.946Z,75.58
2019-02-26T01:23:41.607Z,75.52
2019-02-26T01:26:10.068Z,75.65
2019-02-26T01:28:39.652Z,75.95
2019-02-26T01:31:07.483Z,75.99
2019-02-26T01:33:35.150Z,76.19
2019-02-26T01:36:02.817Z,76.37
2019-02-26T01:38:30.461Z,76.63
2019-02-26T01:40:58.123Z,75.82
2019-02-26T01:43:25.784Z,76.29
2019-02-26T01:45:55.367Z,76.91
2019-02-26T01:48:22.822Z,77.03
2019-02-26T01:50:52.117Z,77.42
2019-02-26T01:53:21.412Z,77.84
2019-02-26T01:55:50.540Z,77.93
2019-02-26T01:58:18.352Z,78.14
2019-02-26T02:00:46.012Z,77.72
2019-02-26T02:03:13.666Z,78.02
2019-02-26T02:05:43.136Z,77.92
2019-02-26T02:08:13.074Z,77.78
2019-02-26T02:10:40.090Z,77.97
2019-02-26T02:13:09.313Z,78.32
2019-02-26T02:15:37.915Z,79.26
2019-02-26T02:18:06.478Z,79.95
2019-02-26T02:20:34.142Z,79.20
2019-02-26T02:23:02.677Z,78.28
2019-02-26T02:25:33.302Z,78.25
2019-02-26T02:28:02.679Z,78.81
2019-02-26T02:30:31.461Z,78.46
2019-02-26T02:33:00.131Z,77.99
2019-02-26T02:35:28.614Z,78.11
2019-02-26T02:37:57.063Z,79.09
2019-02-26T02:40:25.634Z,79.02
2019-02-26T02:42:53.285Z,78.92
2019-02-26T02:45:21.422Z,79.00
2019-02-26T02:47:54.793Z,80.00
2019-02-26T02:50:18.727Z,79.39
2019-02-26T02:52:46.516Z,78.95
2019-02-26T02:55:17.210Z,79.09
2019-02-26T02:57:43.532Z,79.78
2019-02-26T03:00:11.485Z,79.67
2019-02-26T03:02:42.791Z,80.18
2019-02-26T03:05:08.526Z,79.82
2019-02-26T03:07:36.182Z,80.73
2019-02-26T03:10:06.746Z,81.84
2019-02-26T03:12:34.134Z,82.45
2019-02-26T03:15:02.262Z,82.58
2019-02-26T03:17:31.169Z,81.98
2019-02-26T03:20:01.641Z,81.11
2019-02-26T03:22:28.219Z,80.61
2019-02-26T03:24:57.500Z,80.58
2019-02-26T03:27:27.834Z,81.32
2019-02-26T03:29:56.235Z,81.19
2019-02-26T03:32:23.983Z,81.12
2019-02-26T03:34:51.649Z,81.57
2019-02-26T03:37:19.393Z,81.60
2019-02-26T03:39:47.065Z,80.99
2019-02-26T03:42:16.660Z,80.64
2019-02-26T03:44:46.582Z,81.80
2019-02-26T03:47:13.479Z,81.71
2019-02-26T03:49:42.284Z,81.36
2019-02-26T03:52:10.093Z,81.33
2019-02-26T03:54:40.224Z,81.24
2019-02-26T03:57:09.024Z,81.45
2019-02-26T03:59:36.495Z,81.19
2019-02-26T04:02:04.153Z,81.47
2019-02-26T04:04:33.636Z,80.90
2019-02-26T04:07:02.113Z,81.04
2019-02-26T04:09:30.569Z,81.89
2019-02-26T04:11:58.217Z,82.44
2019-02-26T04:14:28.273Z,83.09
2019-02-26T04:16:57.443Z,82.35
2019-02-26T04:19:26.793Z,81.78
2019-02-26T04:21:53.981Z,82.11
2019-02-26T04:24:23.279Z,81.50
2019-02-26T04:26:51.016Z,81.44
2019-02-26T04:29:18.704Z,82.11
2019-02-26T04:31:47.083Z,82.06
2019-02-26T04:34:15.799Z,83.47
2019-02-26T04:36:44.825Z,84.48
2019-02-26T04:39:15.834Z,83.56
2019-02-26T04:41:42.197Z,83.08
2019-02-26T04:44:09.871Z,82.87
2019-02-26T04:46:39.511Z,82.64
2019-02-26T04:49:06.905Z,83.47
2019-02-26T04:51:36.299Z,82.91
2019-02-26T04:54:03.941Z,81.92
2019-02-26T04:56:36.001Z,81.82
2019-02-26T04:59:03.625Z,81.60
2019-02-26T05:01:30.345Z,81.98
2019-02-26T05:03:58.003Z,82.84
2019-02-26T05:06:25.670Z,82.18
2019-02-26T05:08:55.926Z,82.51
2019-02-26T05:11:31.415Z,83.24
2019-02-26T05:13:52.062Z,83.20
2019-02-26T05:16:19.738Z,82.30
2019-02-26T05:18:49.596Z,82.53
2019-02-26T05:21:16.774Z,82.68
2019-02-26T05:23:46.325Z,81.78
2019-02-26T05:26:15.143Z,81.49
2019-02-26T05:28:44.214Z,81.15
2019-02-26T05:31:15.154Z,81.16
2019-02-26T05:33:41.940Z,81.27
2019-02-26T05:36:12.191Z,82.19
2019-02-26T05:38:38.972Z,82.37
2019-02-26T05:41:06.732Z,81.85
2019-02-26T05:43:34.394Z,81.45
2019-02-26T05:46:03.935Z,81.27
2019-02-26T05:48:31.421Z,81.73
2019-02-26T05:51:01.033Z,81.66
2019-02-26T05:53:28.470Z,81.20
2019-02-26T05:55:56.161Z,81.14
2019-02-26T05:58:23.807Z,81.50
2019-02-26T06:00:51.553Z,81.71
2019-02-26T06:03:19.213Z,80.86
2019-02-26T06:05:48.961Z,81.21
2019-02-26T06:08:16.258Z,81.06
2019-02-26T06:10:43.913Z,81.65
2019-02-26T06:13:13.555Z,81.35
2019-02-26T06:15:40.936Z,81.35
2019-02-26T06:18:08.593Z,80.81
2019-02-26T06:20:36.727Z,80.44
2019-02-26T06:23:04.495Z,80.95
2019-02-26T06:25:32.159Z,80.73
2019-02-26T06:28:02.318Z,80.23
2019-02-26T06:30:29.182Z,80.21
2019-02-26T06:32:59.685Z,80.03
2019-02-26T06:35:26.221Z,80.71
2019-02-26T06:37:53.865Z,80.87
2019-02-26T06:40:21.534Z,80.59
2019-02-26T06:42:49.203Z,80.07
2019-02-26T06:45:17.121Z,79.41
2019-02-26T06:47:45.775Z,79.32
2019-02-26T06:50:18.022Z,79.42
2019-02-26T06:52:45.380Z,79.09
2019-02-26T06:55:12.925Z,78.70
2019-02-26T06:57:41.315Z,78.12
2019-02-26T07:00:09.943Z,77.90
2019-02-26T07:02:37.597Z,77.50
2019-02-26T07:05:05.274Z,77.38
2019-02-26T07:07:32.928Z,76.81
2019-02-26T07:10:00.592Z,75.45
2019-02-26T07:12:28.255Z,75.22
2019-02-26T07:14:58.005Z,74.41
2019-02-26T07:17:26.927Z,74.20
2019-02-26T07:19:55.907Z,73.93
2019-02-26T07:22:24.014Z,72.97
2019-02-26T07:24:53.846Z,72.52
2019-02-26T07:27:21.055Z,72.76
2019-02-26T07:29:52.202Z,72.16
2019-02-26T07:32:20.197Z,71.17
2019-02-26T07:34:49.675Z,71.00
2019-02-26T07:37:16.866Z,70.32
2019-02-26T07:39:46.693Z,69.82
2019-02-26T07:42:16.326Z,68.09
2019-02-26T07:44:43.275Z,66.50
2019-02-26T07:47:11.331Z,67.17
2019-02-26T07:49:39.073Z,67.20
2019-02-26T07:52:08.679Z,66.89
2019-02-26T07:54:37.799Z,66.46
2019-02-26T07:57:05.475Z,65.64
2019-02-26T07:59:34.823Z,65.63
2019-02-26T08:02:03.792Z,65.13
2019-02-26T08:04:33.961Z,65.46
2019-02-26T08:07:01.938Z,65.61
2019-02-26T08:09:30.603Z,63.61
2019-02-26T08:11:58.262Z,63.35
2019-02-26T08:14:26.019Z,63.04
2019-02-26T08:16:56.062Z,62.23
2019-02-26T08:19:23.045Z,61.80
2019-02-26T08:21:52.640Z,60.12
2019-02-26T08:24:24.410Z,59.27
2019-02-26T08:26:49.802Z,56.99
2019-02-26T08:29:17.606Z,55.56
2019-02-26T08:31:47.449Z,54.72
2019-02-26T08:34:15.798Z,54.64
2019-02-26T08:36:46.188Z,54.96
2019-02-26T08:39:15.711Z,55.43
2019-02-26T08:41:42.303Z,54.05
2019-02-26T08:44:09.962Z,53.55
2019-02-26T08:46:39.669Z,52.88
2019-02-26T08:49:08.711Z,52.06
2019-02-26T08:51:36.386Z,51.88
2019-02-26T08:54:04.041Z,52.03
2019-02-26T08:56:34.281Z,52.06
2019-02-26T08:59:03.506Z,51.48
2019-02-26T09:01:30.447Z,50.55
2019-02-26T09:03:58.984Z,49.88
2019-02-26T09:06:27.469Z,52.65
2019-02-26T09:08:57.344Z,52.27
2019-02-26T09:11:26.221Z,52.76
2019-02-26T09:13:56.320Z,51.47
2019-02-26T09:16:25.125Z,50.05
2019-02-26T09:18:52.604Z,50.34
2019-02-26T09:21:21.134Z,51.59
2019-02-26T09:23:52.825Z,50.94
2019-02-26T09:26:19.008Z,50.18
2019-02-26T09:28:48.156Z,49.99
2019-02-26T09:31:16.046Z,50.59
2019-02-26T09:33:45.502Z,49.93
2019-02-26T09:36:15.711Z,48.75
2019-02-26T09:38:44.285Z,48.42
2019-02-26T09:41:13.997Z,49.00
2019-02-26T09:43:43.180Z,48.58
2019-02-26T09:46:14.399Z,48.89
2019-02-26T09:48:41.116Z,47.85
2019-02-26T09:51:09.852Z,47.66
2019-02-26T09:53:38.698Z,48.46
2019-02-26T09:56:06.370Z,47.71
2019-02-26T09:58:34.033Z,47.05
2019-02-26T10:01:01.707Z,46.95
2019-02-26T10:03:29.689Z,47.04
2019-02-26T10:05:58.757Z,47.21
2019-02-26T10:08:28.124Z,46.18
2019-02-26T10:10:57.678Z,45.69
2019-02-26T10:13:27.707Z,45.65
2019-02-26T10:15:56.412Z,46.05
2019-02-26T10:18:25.648Z,47.16
2019-02-26T10:20:54.693Z,45.30
2019-02-26T10:23:24.034Z,44.29
2019-02-26T10:25:55.519Z,44.19
2019-02-26T10:28:21.638Z,44.32
2019-02-26T10:30:50.082Z,45.59
2019-02-26T10:33:18.570Z,45.20
2019-02-26T10:35:49.539Z,44.89
2019-02-26T10:38:16.502Z,44.51
2019-02-26T10:40:53.199Z,45.28
2019-02-26T10:43:13.549Z,44.97
2019-02-26T10:45:44.145Z,44.40
2019-02-26T10:48:10.600Z,44.77
2019-02-26T10:50:40.355Z,44.94
2019-02-26T10:53:10.588Z,43.53
2019-02-26T10:55:41.192Z,43.06
2019-02-26T10:58:10.012Z,42.82
2019-02-26T11:00:37.887Z,42.55
2019-02-26T11:03:06.553Z,44.42
2019-02-26T11:05:37.199Z,43.52
2019-02-26T11:08:08.823Z,43.59
2019-02-26T11:10:33.894Z,44.29
2019-02-26T11:13:01.600Z,44.85
2019-02-26T11:15:32.726Z,44.64
2019-02-26T11:17:58.715Z,43.53
2019-02-26T11:20:28.322Z,43.65
2019-02-26T11:22:55.765Z,43.19
2019-02-26T11:25:24.850Z,43.17
2019-02-26T11:27:52.849Z,43.47
2019-02-26T11:30:22.928Z,43.74
2019-02-26T11:32:49.891Z,43.02
2019-02-26T11:35:19.558Z,42.33
2019-02-26T11:37:47.979Z,43.37
2019-02-26T11:40:17.419Z,42.12
2019-02-26T11:42:46.713Z,41.87
2019-02-26T11:45:17.482Z,42.78
2019-02-26T11:47:44.514Z,42.42
2019-02-26T11:50:12.214Z,41.71
2019-02-26T11:52:39.911Z,42.16
2019-02-26T11:55:09.409Z,41.55
2019-02-26T11:57:37.675Z,40.93
2019-02-26T12:00:09.156Z,42.09
2019-02-26T12:02:38.728Z,41.89
2019-02-26T12:05:08.045Z,41.20
2019-02-26T12:07:35.791Z,41.34
2019-02-26T12:10:09.306Z,42.15
2019-02-26T12:12:34.199Z,40.86
2019-02-26T12:15:04.427Z,41.10
2019-02-26T12:17:31.732Z,41.79
2019-02-26T12:20:00.410Z,41.43
2019-02-26T12:22:29.883Z,41.66
2019-02-26T12:24:58.805Z,41.44
2019-02-26T12:27:27.074Z,41.69
2019-02-26T12:29:54.807Z,41.70
2019-02-26T12:32:24.884Z,42.22
2019-02-26T12:34:51.859Z,42.65
2019-02-26T12:37:19.521Z,41.76
2019-02-26T12:39:49.571Z,42.60
2019-02-26T12:42:18.450Z,41.82
2019-02-26T12:44:45.932Z,42.07
2019-02-26T12:47:15.444Z,43.08
2019-02-26T12:49:45.110Z,42.23
2019-02-26T12:52:12.383Z,42.26
2019-02-26T12:54:42.748Z,42.42
2019-02-26T12:57:09.405Z,42.70
2019-02-26T12:59:37.070Z,43.26
2019-02-26T13:02:05.437Z,42.15
2019-02-26T13:04:34.117Z,41.91
2019-02-26T13:07:01.863Z,41.95
2019-02-26T13:09:29.611Z,42.92
2019-02-26T13:12:02.447Z,42.10
2019-02-26T13:14:26.669Z,42.19
2019-02-26T13:16:57.144Z,40.90
2019-02-26T13:19:26.397Z,40.95
2019-02-26T13:21:56.277Z,40.68
2019-02-26T13:24:26.108Z,40.97
2019-02-26T13:26:54.493Z,41.20
2019-02-26T13:29:21.189Z,40.36
2019-02-26T13:31:56.208Z,41.36
2019-02-26T13:34:18.330Z,40.88
2019-02-26T13:36:52.231Z,41.23
2019-02-26T13:39:22.026Z,41.85
2019-02-26T13:41:44.750Z,41.62
2019-02-26T13:44:12.506Z,40.61
2019-02-26T13:46:40.176Z,41.76
2019-02-26T13:49:07.857Z,40.22
2019-02-26T13:51:35.527Z,40.58
2019-02-26T13:54:03.197Z,40.69
2019-02-26T13:56:30.854Z,40.79
2019-02-26T13:58:58.523Z,41.53
2019-02-26T14:01:26.203Z,40.50
2019-02-26T14:03:53.876Z,40.76
2019-02-26T14:06:21.542Z,40.98
2019-02-26T14:08:49.589Z,40.52
2019-02-26T14:11:17.253Z,40.59
2019-02-26T14:13:44.911Z,40.17
2019-02-26T14:16:12.580Z,40.71
2019-02-26T14:18:40.247Z,40.43
2019-02-26T14:21:07.915Z,39.73
2019-02-26T14:23:35.888Z,39.60
2019-02-26T14:26:03.632Z,39.15
2019-02-26T14:28:31.298Z,38.83
2019-02-26T14:30:58.963Z,39.27
2019-02-26T14:33:26.629Z,39.08
2019-02-26T14:35:54.302Z,39.18
2019-02-26T14:38:21.973Z,39.18
2019-02-26T14:40:49.651Z,40.22
2019-02-26T14:43:17.385Z,39.08
2019-02-26T14:45:45.049Z,39.16
2019-02-26T14:48:13.862Z,40.05
2019-02-26T14:50:41.662Z,39.97
2019-02-26T14:53:09.327Z,41.04
2019-02-26T14:55:36.997Z,40.71
2019-02-26T14:58:04.741Z,40.64
2019-02-26T15:00:32.687Z,41.16
2019-02-26T15:03:00.363Z,42.27
2019-02-26T15:05:28.032Z,42.43
2019-02-26T15:07:55.694Z,42.93
2019-02-26T15:10:23.358Z,42.36
2019-02-26T15:12:51.010Z,42.98
2019-02-26T15:15:18.689Z,41.72
2019-02-26T15:17:46.438Z,42.38
2019-02-26T15:20:14.110Z,42.93
2019-02-26T15:22:41.854Z,42.00
2019-02-26T15:25:09.690Z,43.19
2019-02-26T15:27:38.928Z,43.13
2019-02-26T15:30:06.738Z,42.76
2019-02-26T15:32:34.409Z,42.51
2019-02-26T15:35:02.083Z,43.10
2019-02-26T15:37:29.750Z,43.19
2019-02-26T15:39:57.706Z,43.44
2019-02-26T15:42:25.375Z,43.10
2019-02-26T15:44:53.042Z,42.82
2019-02-26T15:47:20.718Z,43.63
2019-02-26T15:49:48.387Z,43.72
2019-02-26T15:52:16.439Z,43.66
2019-02-26T15:54:44.113Z,45.01
2019-02-26T15:57:11.765Z,44.54
2019-02-26T15:59:39.434Z,44.60
2019-02-26T16:02:07.107Z,44.08
2019-02-26T16:04:34.776Z,44.48
2019-02-26T16:07:02.438Z,45.20
2019-02-26T16:09:30.108Z,45.60
2019-02-26T16:11:57.786Z,46.10
2019-02-26T16:14:25.451Z,45.74
2019-02-26T16:16:53.123Z,45.92
2019-02-26T16:19:21.071Z,46.46
2019-02-26T16:21:48.753Z,46.78
2019-02-26T16:24:16.430Z,47.27
2019-02-26T16:26:44.104Z,46.76
2019-02-26T16:29:11.775Z,45.67
2019-02-26T16:31:39.438Z,45.78
2019-02-26T16:34:07.107Z,46.43
2019-02-26T16:36:34.783Z,46.20
2019-02-26T16:39:02.452Z,46.56
2019-02-26T16:41:30.124Z,46.92
2019-02-26T16:43:57.787Z,47.05
2019-02-26T16:46:25.855Z,47.87
2019-02-26T16:48:54.111Z,46.95
2019-02-26T16:51:21.949Z,46.90
2019-02-26T16:53:49.601Z,47.33
2019-02-26T16:56:19.644Z,46.44
2019-02-26T16:58:46.706Z,45.95
2019-02-26T17:01:14.369Z,46.87
2019-02-26T17:03:42.042Z,47.23
2019-02-26T17:06:09.718Z,48.49
2019-02-26T17:08:37.416Z,48.45
2019-02-26T17:11:05.088Z,48.30
2019-02-26T17:13:33.122Z,47.88
2019-02-26T17:16:00.792Z,49.11
2019-02-26T17:18:28.462Z,49.13
2019-02-26T17:20:56.961Z,49.62
2019-02-26T17:23:25.175Z,49.61
2019-02-26T17:25:52.847Z,49.52
2019-02-26T17:28:20.582Z,49.31
2019-02-26T17:30:48.251Z,49.23
2019-02-26T17:33:15.914Z,49.91
2019-02-26T17:35:43.586Z,50.34
2019-02-26T17:38:12.858Z,50.51
2019-02-26T17:40:40.640Z,50.63
2019-02-26T17:43:08.306Z,51.29
2019-02-26T17:45:37.188Z,51.74
2019-02-26T17:48:05.350Z,51.38
2019-02-26T17:50:33.017Z,52.42
2019-02-26T17:53:00.679Z,52.37
2019-02-26T17:55:28.352Z,52.31
2019-02-26T17:57:56.008Z,52.67
2019-02-26T18:00:24.478Z,53.09
2019-02-26T18:02:52.147Z,53.10
2019-02-26T18:05:19.831Z,53.20
2019-02-26T18:07:47.498Z,54.09
2019-02-26T18:10:15.163Z,52.06
2019-02-26T18:12:43.314Z,50.04
2019-02-26T18:15:11.131Z,51.50
2019-02-26T18:17:38.798Z,50.10
2019-02-26T18:20:06.467Z,51.62
2019-02-26T18:22:34.134Z,52.38
2019-02-26T18:25:01.792Z,51.89
2019-02-26T18:27:30.637Z,53.03
2019-02-26T18:29:58.808Z,52.96
2019-02-26T18:32:26.474Z,51.53
2019-02-26T18:34:54.141Z,51.47
2019-02-26T18:37:21.818Z,51.37
2019-02-26T18:39:49.486Z,51.53
2019-02-26T18:42:17.159Z,51.65
2019-02-26T18:44:44.833Z,53.17
2019-02-26T18:47:12.491Z,52.37
2019-02-26T18:49:40.158Z,53.13
2019-02-26T18:52:08.713Z,56.12
2019-02-26T18:54:36.859Z,56.48
2019-02-26T18:57:04.535Z,56.29
2019-02-26T18:59:32.193Z,55.68
2019-02-26T19:02:03.313Z,55.89
2019-02-26T19:04:29.222Z,56.43
2019-02-26T19:06:59.484Z,56.64
2019-02-26T19:09:27.758Z,56.27
2019-02-26T19:11:57.707Z,56.35
2019-02-26T19:14:24.985Z,55.50
2019-02-26T19:16:54.850Z,56.98
2019-02-26T19:19:22.012Z,57.59
2019-02-26T19:21:51.789Z,58.37
2019-02-26T19:24:19.040Z,57.99
2019-02-26T19:26:47.388Z,57.95
2019-02-26T19:29:15.247Z,57.64
2019-02-26T19:31:43.301Z,57.99
2019-02-26T19:34:11.066Z,58.47
2019-02-26T19:36:38.742Z,59.24
2019-02-26T19:39:06.398Z,59.70
2019-02-26T19:41:34.071Z,60.85
2019-02-26T19:44:01.716Z,61.85
2019-02-26T19:46:29.393Z,61.52
2019-02-26T19:48:57.066Z,61.96
2019-02-26T19:51:25.521Z,60.90
2019-02-26T19:53:53.390Z,61.54
2019-02-26T19:56:23.594Z,62.85
2019-02-26T19:58:50.427Z,63.98
2019-02-26T20:01:18.089Z,62.94
2019-02-26T20:03:45.755Z,64.08
2019-02-26T20:06:13.417Z,65.21
2019-02-26T20:08:41.119Z,65.86
2019-02-26T20:11:08.783Z,66.04
2019-02-26T20:13:41.901Z,65.82
2019-02-26T20:16:05.811Z,63.78
2019-02-26T20:18:33.474Z,63.66
2019-02-26T20:21:01.135Z,64.44
2019-02-26T20:23:28.805Z,63.04
2019-02-26T20:25:56.471Z,64.48
2019-02-26T20:28:24.129Z,65.17
2019-02-26T20:30:51.799Z,65.79
2019-02-26T20:33:19.450Z,66.77
2019-02-26T20:35:47.115Z,65.41
2019-02-26T20:38:14.788Z,64.65
2019-02-26T20:40:42.448Z,65.62
2019-02-26T20:43:10.118Z,65.64
2019-02-26T20:45:37.786Z,67.32
2019-02-26T20:48:05.454Z,66.54
2019-02-26T20:50:33.124Z,65.47
2019-02-26T20:53:00.775Z,64.78
2019-02-26T20:55:28.457Z,66.64
2019-02-26T20:57:56.122Z,67.70
2019-02-26T21:00:25.278Z,67.04
2019-02-26T21:02:53.153Z,66.85
2019-02-26T21:05:20.806Z,66.66
2019-02-26T21:07:49.693Z,65.85
2019-02-26T21:10:17.620Z,66.29
2019-02-26T21:12:45.310Z,68.26
2019-02-26T21:15:13.870Z,68.97
2019-02-26T21:17:42.080Z,67.82
2019-02-26T21:20:09.747Z,68.09
2019-02-26T21:22:37.414Z,68.80
2019-02-26T21:25:05.074Z,68.84
2019-02-26T21:27:32.740Z,70.48
2019-02-26T21:30:00.402Z,71.46
2019-02-26T21:32:28.069Z,72.16
2019-02-26T21:34:55.721Z,71.09
2019-02-26T21:37:23.387Z,72.25
2019-02-26T21:39:51.055Z,72.86
2019-02-26T21:42:18.717Z,72.59
2019-02-26T21:44:46.380Z,73.33
2019-02-26T21:47:14.035Z,73.98
2019-02-26T21:49:41.693Z,73.00
2019-02-26T21:52:09.568Z,72.56
2019-02-26T21:54:37.309Z,72.21
2019-02-26T21:57:04.967Z,73.05
2019-02-26T21:59:33.233Z,73.05
2019-02-26T22:02:01.069Z,71.66
2019-02-26T22:04:31.742Z,73.83
2019-02-26T22:06:58.101Z,74.47
2019-02-26T22:09:29.922Z,74.68
2019-02-26T22:11:55.146Z,75.48
2019-02-26T22:14:22.821Z,75.24
2019-02-26T22:16:51.500Z,75.38
2019-02-26T22:19:19.727Z,74.38
2019-02-26T22:21:51.659Z,73.28
2019-02-26T22:24:16.764Z,74.19
2019-02-26T22:26:44.409Z,74.80
2019-02-26T22:29:12.926Z,74.84
2019-02-26T22:31:41.456Z,75.68
2019-02-26T22:34:09.117Z,75.07
2019-02-26T22:36:36.786Z,74.53
2019-02-26T22:39:04.453Z,73.54
2019-02-26T22:41:32.751Z,72.49
2019-02-26T22:44:01.498Z,74.78
2019-02-26T22:46:29.153Z,75.54
2019-02-26T22:48:56.834Z,75.68
2019-02-26T22:51:24.505Z,76.02
2019-02-26T22:53:52.249Z,76.33
2019-02-26T22:56:21.916Z,76.44
2019-02-26T22:58:49.297Z,76.74
2019-02-26T23:01:19.806Z,75.66
2019-02-26T23:03:47.474Z,76.03
2019-02-26T23:06:15.131Z,76.79
2019-02-26T23:08:44.725Z,77.44
2019-02-26T23:11:12.645Z,77.28
2019-02-26T23:13:40.303Z,75.45
2019-02-26T23:16:07.957Z,75.58
2019-02-26T23:18:35.953Z,77.06
2019-02-26T23:21:03.621Z,77.62
2019-02-26T23:23:31.326Z,76.31
2019-02-26T23:25:59.026Z,75.31
2019-02-26T23:28:26.700Z,76.29
2019-02-26T23:30:54.355Z,78.44
2019-02-26T23:33:22.016Z,78.73
2019-02-26T23:35:49.699Z,77.78
2019-02-26T23:38:17.354Z,77.74
2019-02-26T23:40:45.009Z,77.49
2019-02-26T23:43:12.656Z,78.79
2019-02-26T23:45:40.312Z,77.27
2019-02-26T23:48:08.643Z,77.78
2019-02-26T23:50:36.419Z,78.24
2019-02-26T23:53:04.079Z,79.58
2019-02-26T23:55:31.736Z,79.78
2019-02-26T23:57:59.393Z,80.13
